sensor_id;sensor_type;location;lat;lon;timestamp;temperature;humidity
14061;DHT22;7105;43.616;1.434;2023-04-29T00:00:30;17.00;99.90
14061;DHT22;7105;43.616;1.434;2023-04-29T00:02:56;17.10;99.90
14061;DHT22;7105;43.616;1.434;2023-04-29T00:05:22;17.00;99.90
14061;DHT22;7105;43.616;1.434;2023-04-29T00:07:47;17.00;99.90
14061;DHT22;7105;43.616;1.434;2023-04-29T00:10:13;17.10;99.90
14061;DHT22;7105;43.616;1.434;2023-04-29T00:12:40;17.00;99.90
14061;DHT22;7105;43.616;1.434;2023-04-29T00:15:06;17.10;99.90
14061;DHT22;7105;43.616;1.434;2023-04-29T00:17:33;17.00;99.90
14061;DHT22;7105;43.616;1.434;2023-04-29T00:19:59;17.00;99.90
14061;DHT22;7105;43.616;1.434;2023-04-29T00:22:24;17.00;99.90
14061;DHT22;7105;43.616;1.434;2023-04-29T00:24:50;17.00;99.90
14061;DHT22;7105;43.616;1.434;2023-04-29T00:27:17;17.00;99.90
14061;DHT22;7105;43.616;1.434;2023-04-29T00:29:43;17.00;99.90
14061;DHT22;7105;43.616;1.434;2023-04-29T00:32:08;17.00;99.90
14061;DHT22;7105;43.616;1.434;2023-04-29T00:34:34;17.00;99.90
14061;DHT22;7105;43.616;1.434;2023-04-29T00:37:00;16.90;99.90
14061;DHT22;7105;43.616;1.434;2023-04-29T00:39:25;16.90;99.90
14061;DHT22;7105;43.616;1.434;2023-04-29T00:41:51;16.90;99.90
14061;DHT22;7105;43.616;1.434;2023-04-29T00:44:17;16.90;99.90
14061;DHT22;7105;43.616;1.434;2023-04-29T00:46:43;16.80;99.90
14061;DHT22;7105;43.616;1.434;2023-04-29T00:49:10;16.90;99.90
14061;DHT22;7105;43.616;1.434;2023-04-29T00:51:37;16.90;99.90
14061;DHT22;7105;43.616;1.434;2023-04-29T00:54:07;16.90;99.90
14061;DHT22;7105;43.616;1.434;2023-04-29T00:56:34;16.90;99.90
14061;DHT22;7105;43.616;1.434;2023-04-29T00:59:01;17.00;99.90
14061;DHT22;7105;43.616;1.434;2023-04-29T01:01:29;16.90;99.90
14061;DHT22;7105;43.616;1.434;2023-04-29T01:03:56;16.90;99.90
14061;DHT22;7105;43.616;1.434;2023-04-29T01:09:39;17.00;99.90
14061;DHT22;7105;43.616;1.434;2023-04-29T01:14:52;16.90;99.90
14061;DHT22;7105;43.616;1.434;2023-04-29T01:17:22;16.90;99.90
14061;DHT22;7105;43.616;1.434;2023-04-29T01:19:53;16.90;99.90
14061;DHT22;7105;43.616;1.434;2023-04-29T01:22:20;16.90;99.90
14061;DHT22;7105;43.616;1.434;2023-04-29T01:24:47;16.90;99.90
14061;DHT22;7105;43.616;1.434;2023-04-29T01:27:50;16.90;99.90
14061;DHT22;7105;43.616;1.434;2023-04-29T01:33:14;17.00;99.90
14061;DHT22;7105;43.616;1.434;2023-04-29T01:35:49;17.00;99.90
14061;DHT22;7105;43.616;1.434;2023-04-29T01:38:38;17.00;99.90
14061;DHT22;7105;43.616;1.434;2023-04-29T01:43:51;17.10;99.90
14061;DHT22;7105;43.616;1.434;2023-04-29T01:46:17;17.10;99.90
14061;DHT22;7105;43.616;1.434;2023-04-29T01:48:44;17.10;99.90
14061;DHT22;7105;43.616;1.434;2023-04-29T01:51:09;17.10;99.90
14061;DHT22;7105;43.616;1.434;2023-04-29T01:53:36;17.20;99.90
14061;DHT22;7105;43.616;1.434;2023-04-29T01:56:01;17.10;99.90
14061;DHT22;7105;43.616;1.434;2023-04-29T01:58:27;17.10;99.90
14061;DHT22;7105;43.616;1.434;2023-04-29T02:00:53;17.20;99.90
14061;DHT22;7105;43.616;1.434;2023-04-29T02:03:20;17.00;99.90
14061;DHT22;7105;43.616;1.434;2023-04-29T02:05:45;17.10;99.90
14061;DHT22;7105;43.616;1.434;2023-04-29T02:08:11;17.10;99.90
14061;DHT22;7105;43.616;1.434;2023-04-29T02:10:37;17.10;99.90
14061;DHT22;7105;43.616;1.434;2023-04-29T02:13:03;17.20;99.90
14061;DHT22;7105;43.616;1.434;2023-04-29T02:15:29;17.20;99.90
14061;DHT22;7105;43.616;1.434;2023-04-29T02:17:54;17.20;99.90
14061;DHT22;7105;43.616;1.434;2023-04-29T02:20:20;17.20;99.90
14061;DHT22;7105;43.616;1.434;2023-04-29T02:22:46;17.20;99.90
14061;DHT22;7105;43.616;1.434;2023-04-29T02:25:11;17.20;99.90
14061;DHT22;7105;43.616;1.434;2023-04-29T02:27:37;17.20;99.90
14061;DHT22;7105;43.616;1.434;2023-04-29T02:30:03;17.20;99.90
14061;DHT22;7105;43.616;1.434;2023-04-29T02:32:29;17.20;99.90
14061;DHT22;7105;43.616;1.434;2023-04-29T02:34:55;17.20;99.90
14061;DHT22;7105;43.616;1.434;2023-04-29T02:37:21;17.20;99.90
14061;DHT22;7105;43.616;1.434;2023-04-29T02:39:47;17.20;99.90
14061;DHT22;7105;43.616;1.434;2023-04-29T02:42:13;17.10;99.90
14061;DHT22;7105;43.616;1.434;2023-04-29T02:44:38;17.10;99.90
14061;DHT22;7105;43.616;1.434;2023-04-29T02:47:05;17.20;99.90
14061;DHT22;7105;43.616;1.434;2023-04-29T02:49:31;17.10;99.90
14061;DHT22;7105;43.616;1.434;2023-04-29T02:51:57;17.10;99.90
14061;DHT22;7105;43.616;1.434;2023-04-29T02:54:23;17.20;99.90
14061;DHT22;7105;43.616;1.434;2023-04-29T02:56:48;17.20;99.90
14061;DHT22;7105;43.616;1.434;2023-04-29T02:59:14;17.20;99.90
14061;DHT22;7105;43.616;1.434;2023-04-29T03:01:40;17.20;99.90
14061;DHT22;7105;43.616;1.434;2023-04-29T03:04:06;17.10;99.90
14061;DHT22;7105;43.616;1.434;2023-04-29T03:06:32;17.10;99.90
14061;DHT22;7105;43.616;1.434;2023-04-29T03:08:57;17.10;99.90
14061;DHT22;7105;43.616;1.434;2023-04-29T03:11:23;17.10;99.90
14061;DHT22;7105;43.616;1.434;2023-04-29T03:13:49;17.10;99.90
14061;DHT22;7105;43.616;1.434;2023-04-29T03:16:15;17.00;99.90
14061;DHT22;7105;43.616;1.434;2023-04-29T03:18:42;17.10;99.90
14061;DHT22;7105;43.616;1.434;2023-04-29T03:21:08;17.10;99.90
14061;DHT22;7105;43.616;1.434;2023-04-29T03:23:33;17.10;99.90
14061;DHT22;7105;43.616;1.434;2023-04-29T03:25:59;17.10;99.90
14061;DHT22;7105;43.616;1.434;2023-04-29T03:28:25;17.10;99.90
14061;DHT22;7105;43.616;1.434;2023-04-29T03:30:51;17.00;99.90
14061;DHT22;7105;43.616;1.434;2023-04-29T03:33:17;17.00;99.90
14061;DHT22;7105;43.616;1.434;2023-04-29T03:35:43;16.90;99.90
14061;DHT22;7105;43.616;1.434;2023-04-29T03:38:10;17.00;99.90
14061;DHT22;7105;43.616;1.434;2023-04-29T03:40:36;16.90;99.90
14061;DHT22;7105;43.616;1.434;2023-04-29T03:43:02;16.90;99.90
14061;DHT22;7105;43.616;1.434;2023-04-29T03:45:28;16.90;99.90
14061;DHT22;7105;43.616;1.434;2023-04-29T03:47:54;16.90;99.90
14061;DHT22;7105;43.616;1.434;2023-04-29T03:50:20;17.00;99.90
14061;DHT22;7105;43.616;1.434;2023-04-29T03:52:45;17.00;99.90
14061;DHT22;7105;43.616;1.434;2023-04-29T03:55:11;16.90;99.90
14061;DHT22;7105;43.616;1.434;2023-04-29T03:57:37;16.90;99.90
14061;DHT22;7105;43.616;1.434;2023-04-29T04:00:04;16.90;99.90
14061;DHT22;7105;43.616;1.434;2023-04-29T04:02:30;16.90;99.90
14061;DHT22;7105;43.616;1.434;2023-04-29T04:04:55;16.90;99.90
14061;DHT22;7105;43.616;1.434;2023-04-29T04:07:23;17.00;99.90
14061;DHT22;7105;43.616;1.434;2023-04-29T04:09:49;16.90;99.90
14061;DHT22;7105;43.616;1.434;2023-04-29T04:12:14;16.90;99.90
14061;DHT22;7105;43.616;1.434;2023-04-29T04:14:40;16.90;99.90
14061;DHT22;7105;43.616;1.434;2023-04-29T04:17:06;16.90;99.90
14061;DHT22;7105;43.616;1.434;2023-04-29T04:19:32;16.80;99.90
14061;DHT22;7105;43.616;1.434;2023-04-29T04:21:58;16.80;99.90
14061;DHT22;7105;43.616;1.434;2023-04-29T04:24:23;16.80;99.90
14061;DHT22;7105;43.616;1.434;2023-04-29T04:26:49;16.80;99.90
14061;DHT22;7105;43.616;1.434;2023-04-29T04:29:15;16.80;99.90
14061;DHT22;7105;43.616;1.434;2023-04-29T04:31:41;16.80;99.90
14061;DHT22;7105;43.616;1.434;2023-04-29T04:34:06;16.80;99.90
14061;DHT22;7105;43.616;1.434;2023-04-29T04:36:32;16.80;99.90
14061;DHT22;7105;43.616;1.434;2023-04-29T04:38:58;16.80;99.90
14061;DHT22;7105;43.616;1.434;2023-04-29T04:41:23;16.80;99.90
14061;DHT22;7105;43.616;1.434;2023-04-29T04:43:49;16.80;99.90
14061;DHT22;7105;43.616;1.434;2023-04-29T04:46:15;16.70;99.90
14061;DHT22;7105;43.616;1.434;2023-04-29T04:48:42;16.70;99.90
14061;DHT22;7105;43.616;1.434;2023-04-29T04:51:11;16.70;99.90
14061;DHT22;7105;43.616;1.434;2023-04-29T04:53:38;16.70;99.90
14061;DHT22;7105;43.616;1.434;2023-04-29T04:56:04;16.70;99.90
14061;DHT22;7105;43.616;1.434;2023-04-29T04:58:31;16.70;99.90
14061;DHT22;7105;43.616;1.434;2023-04-29T05:01:00;16.60;99.90
14061;DHT22;7105;43.616;1.434;2023-04-29T05:03:26;16.70;99.90
14061;DHT22;7105;43.616;1.434;2023-04-29T05:05:59;16.70;99.90
14061;DHT22;7105;43.616;1.434;2023-04-29T05:08:25;16.70;99.90
14061;DHT22;7105;43.616;1.434;2023-04-29T05:10:50;16.70;99.90
14061;DHT22;7105;43.616;1.434;2023-04-29T05:13:17;16.80;99.90
14061;DHT22;7105;43.616;1.434;2023-04-29T05:15:43;16.80;99.90
14061;DHT22;7105;43.616;1.434;2023-04-29T05:18:09;16.80;99.90
14061;DHT22;7105;43.616;1.434;2023-04-29T05:20:35;16.80;99.90
14061;DHT22;7105;43.616;1.434;2023-04-29T05:23:01;16.80;99.90
14061;DHT22;7105;43.616;1.434;2023-04-29T05:25:27;16.70;99.90
14061;DHT22;7105;43.616;1.434;2023-04-29T05:27:53;16.80;99.90
14061;DHT22;7105;43.616;1.434;2023-04-29T05:30:19;16.90;99.90
14061;DHT22;7105;43.616;1.434;2023-04-29T05:32:45;16.90;99.90
14061;DHT22;7105;43.616;1.434;2023-04-29T05:35:11;16.90;99.90
14061;DHT22;7105;43.616;1.434;2023-04-29T05:37:37;16.90;99.90
14061;DHT22;7105;43.616;1.434;2023-04-29T05:40:03;17.00;99.90
14061;DHT22;7105;43.616;1.434;2023-04-29T05:42:29;17.00;99.90
14061;DHT22;7105;43.616;1.434;2023-04-29T05:44:55;16.80;99.90
14061;DHT22;7105;43.616;1.434;2023-04-29T05:47:20;16.90;99.90
14061;DHT22;7105;43.616;1.434;2023-04-29T05:49:47;16.90;99.90
14061;DHT22;7105;43.616;1.434;2023-04-29T05:52:12;16.90;99.90
14061;DHT22;7105;43.616;1.434;2023-04-29T05:54:38;17.00;99.90
14061;DHT22;7105;43.616;1.434;2023-04-29T05:57:04;17.00;99.90
14061;DHT22;7105;43.616;1.434;2023-04-29T05:59:30;17.00;99.90
14061;DHT22;7105;43.616;1.434;2023-04-29T06:01:57;17.10;99.90
14061;DHT22;7105;43.616;1.434;2023-04-29T06:04:26;17.10;99.90
14061;DHT22;7105;43.616;1.434;2023-04-29T06:06:55;17.10;99.90
14061;DHT22;7105;43.616;1.434;2023-04-29T06:09:22;17.10;99.90
14061;DHT22;7105;43.616;1.434;2023-04-29T06:11:51;17.20;99.90
14061;DHT22;7105;43.616;1.434;2023-04-29T06:14:16;17.20;99.90
14061;DHT22;7105;43.616;1.434;2023-04-29T06:16:42;17.20;99.90
14061;DHT22;7105;43.616;1.434;2023-04-29T06:19:08;17.20;99.90
14061;DHT22;7105;43.616;1.434;2023-04-29T06:21:34;17.30;99.90
14061;DHT22;7105;43.616;1.434;2023-04-29T06:24:09;17.20;99.90
14061;DHT22;7105;43.616;1.434;2023-04-29T06:26:34;17.20;99.90
14061;DHT22;7105;43.616;1.434;2023-04-29T06:29:01;17.20;99.90
14061;DHT22;7105;43.616;1.434;2023-04-29T06:31:26;17.10;99.90
14061;DHT22;7105;43.616;1.434;2023-04-29T06:33:52;17.10;99.90
14061;DHT22;7105;43.616;1.434;2023-04-29T06:36:18;17.20;99.90
14061;DHT22;7105;43.616;1.434;2023-04-29T06:38:44;17.00;99.90
14061;DHT22;7105;43.616;1.434;2023-04-29T06:41:10;17.10;99.90
14061;DHT22;7105;43.616;1.434;2023-04-29T06:43:35;17.10;99.90
14061;DHT22;7105;43.616;1.434;2023-04-29T06:46:01;17.10;99.90
14061;DHT22;7105;43.616;1.434;2023-04-29T06:48:27;17.10;99.90
14061;DHT22;7105;43.616;1.434;2023-04-29T06:50:57;17.20;99.90
14061;DHT22;7105;43.616;1.434;2023-04-29T06:53:23;17.20;99.90
14061;DHT22;7105;43.616;1.434;2023-04-29T06:55:49;17.20;99.90
14061;DHT22;7105;43.616;1.434;2023-04-29T06:58:15;17.20;99.90
14061;DHT22;7105;43.616;1.434;2023-04-29T07:00:49;17.20;99.90
14061;DHT22;7105;43.616;1.434;2023-04-29T07:03:16;17.20;99.90
14061;DHT22;7105;43.616;1.434;2023-04-29T07:05:43;17.20;99.90
14061;DHT22;7105;43.616;1.434;2023-04-29T07:08:11;17.30;99.90
14061;DHT22;7105;43.616;1.434;2023-04-29T07:10:37;17.30;99.90
14061;DHT22;7105;43.616;1.434;2023-04-29T07:13:03;17.20;99.90
14061;DHT22;7105;43.616;1.434;2023-04-29T07:15:32;17.10;99.90
14061;DHT22;7105;43.616;1.434;2023-04-29T07:17:58;17.10;99.90
14061;DHT22;7105;43.616;1.434;2023-04-29T07:20:25;17.10;99.90
14061;DHT22;7105;43.616;1.434;2023-04-29T07:22:52;17.10;99.90
14061;DHT22;7105;43.616;1.434;2023-04-29T07:25:17;17.20;99.90
14061;DHT22;7105;43.616;1.434;2023-04-29T07:27:43;17.30;99.90
14061;DHT22;7105;43.616;1.434;2023-04-29T07:30:09;17.30;99.90
14061;DHT22;7105;43.616;1.434;2023-04-29T07:32:35;17.30;99.90
14061;DHT22;7105;43.616;1.434;2023-04-29T07:35:02;17.40;99.90
14061;DHT22;7105;43.616;1.434;2023-04-29T07:37:28;17.40;99.90
14061;DHT22;7105;43.616;1.434;2023-04-29T07:39:53;17.40;99.90
14061;DHT22;7105;43.616;1.434;2023-04-29T07:42:19;17.30;99.90
14061;DHT22;7105;43.616;1.434;2023-04-29T07:44:45;17.50;99.90
14061;DHT22;7105;43.616;1.434;2023-04-29T07:47:11;17.50;99.90
14061;DHT22;7105;43.616;1.434;2023-04-29T07:49:37;17.60;99.90
14061;DHT22;7105;43.616;1.434;2023-04-29T07:52:06;17.60;99.90
14061;DHT22;7105;43.616;1.434;2023-04-29T07:54:34;17.60;99.90
14061;DHT22;7105;43.616;1.434;2023-04-29T07:57:00;17.70;99.90
14061;DHT22;7105;43.616;1.434;2023-04-29T07:59:28;17.80;99.90
14061;DHT22;7105;43.616;1.434;2023-04-29T08:01:57;17.70;99.90
14061;DHT22;7105;43.616;1.434;2023-04-29T08:04:23;17.60;99.90
14061;DHT22;7105;43.616;1.434;2023-04-29T08:06:49;17.60;99.90
14061;DHT22;7105;43.616;1.434;2023-04-29T08:09:15;17.50;99.90
14061;DHT22;7105;43.616;1.434;2023-04-29T08:11:42;17.50;99.90
14061;DHT22;7105;43.616;1.434;2023-04-29T08:14:08;17.50;99.90
14061;DHT22;7105;43.616;1.434;2023-04-29T08:16:33;17.40;99.90
14061;DHT22;7105;43.616;1.434;2023-04-29T08:18:59;17.60;99.90
14061;DHT22;7105;43.616;1.434;2023-04-29T08:21:25;17.70;99.90
14061;DHT22;7105;43.616;1.434;2023-04-29T08:23:52;17.80;99.90
14061;DHT22;7105;43.616;1.434;2023-04-29T08:26:18;17.90;99.90
14061;DHT22;7105;43.616;1.434;2023-04-29T08:28:43;17.80;99.90
14061;DHT22;7105;43.616;1.434;2023-04-29T08:31:19;17.80;99.90
14061;DHT22;7105;43.616;1.434;2023-04-29T08:33:45;17.70;99.90
14061;DHT22;7105;43.616;1.434;2023-04-29T08:36:10;17.60;99.90
14061;DHT22;7105;43.616;1.434;2023-04-29T08:38:36;17.60;99.90
14061;DHT22;7105;43.616;1.434;2023-04-29T08:41:02;17.60;99.90
14061;DHT22;7105;43.616;1.434;2023-04-29T08:43:28;17.70;99.90
14061;DHT22;7105;43.616;1.434;2023-04-29T08:45:54;17.80;99.90
14061;DHT22;7105;43.616;1.434;2023-04-29T08:48:22;17.70;99.90
14061;DHT22;7105;43.616;1.434;2023-04-29T08:50:48;17.70;99.90
14061;DHT22;7105;43.616;1.434;2023-04-29T08:53:13;17.60;99.90
14061;DHT22;7105;43.616;1.434;2023-04-29T08:55:44;17.80;99.90
14061;DHT22;7105;43.616;1.434;2023-04-29T08:58:10;18.20;99.90
14061;DHT22;7105;43.616;1.434;2023-04-29T09:00:37;18.30;99.90
14061;DHT22;7105;43.616;1.434;2023-04-29T09:03:13;18.40;99.90
14061;DHT22;7105;43.616;1.434;2023-04-29T09:05:42;18.70;99.90
14061;DHT22;7105;43.616;1.434;2023-04-29T09:08:10;18.60;99.90
14061;DHT22;7105;43.616;1.434;2023-04-29T09:10:38;18.50;99.90
14061;DHT22;7105;43.616;1.434;2023-04-29T09:13:04;18.70;99.90
14061;DHT22;7105;43.616;1.434;2023-04-29T09:15:37;19.00;99.90
14061;DHT22;7105;43.616;1.434;2023-04-29T09:18:04;19.60;99.90
14061;DHT22;7105;43.616;1.434;2023-04-29T09:20:30;20.50;99.90
14061;DHT22;7105;43.616;1.434;2023-04-29T09:23:02;21.50;99.90
14061;DHT22;7105;43.616;1.434;2023-04-29T09:25:28;20.50;99.90
14061;DHT22;7105;43.616;1.434;2023-04-29T09:27:54;19.40;99.90
14061;DHT22;7105;43.616;1.434;2023-04-29T09:30:21;19.20;99.90
14061;DHT22;7105;43.616;1.434;2023-04-29T09:33:07;18.80;99.90
14061;DHT22;7105;43.616;1.434;2023-04-29T09:35:33;19.00;99.90
14061;DHT22;7105;43.616;1.434;2023-04-29T09:38:10;18.90;99.90
14061;DHT22;7105;43.616;1.434;2023-04-29T09:40:37;18.90;99.90
14061;DHT22;7105;43.616;1.434;2023-04-29T09:43:03;18.80;99.90
14061;DHT22;7105;43.616;1.434;2023-04-29T09:45:37;18.90;99.90
14061;DHT22;7105;43.616;1.434;2023-04-29T09:48:06;19.30;99.90
14061;DHT22;7105;43.616;1.434;2023-04-29T09:50:34;19.50;99.90
14061;DHT22;7105;43.616;1.434;2023-04-29T09:53:04;20.10;99.90
14061;DHT22;7105;43.616;1.434;2023-04-29T09:55:30;20.20;99.90
14061;DHT22;7105;43.616;1.434;2023-04-29T09:57:56;20.50;99.90
14061;DHT22;7105;43.616;1.434;2023-04-29T10:00:23;20.50;99.90
14061;DHT22;7105;43.616;1.434;2023-04-29T10:02:50;20.30;99.90
14061;DHT22;7105;43.616;1.434;2023-04-29T10:05:18;20.10;99.90
14061;DHT22;7105;43.616;1.434;2023-04-29T10:07:46;19.70;99.90
14061;DHT22;7105;43.616;1.434;2023-04-29T10:10:16;19.80;99.90
14061;DHT22;7105;43.616;1.434;2023-04-29T10:12:43;19.60;99.90
14061;DHT22;7105;43.616;1.434;2023-04-29T10:15:34;19.60;99.90
14061;DHT22;7105;43.616;1.434;2023-04-29T10:18:19;19.20;99.90
14061;DHT22;7105;43.616;1.434;2023-04-29T10:20:46;19.00;99.90
14061;DHT22;7105;43.616;1.434;2023-04-29T10:23:14;19.30;99.90
14061;DHT22;7105;43.616;1.434;2023-04-29T10:25:41;19.90;99.90
14061;DHT22;7105;43.616;1.434;2023-04-29T10:28:12;20.10;99.90
14061;DHT22;7105;43.616;1.434;2023-04-29T10:30:43;20.30;99.90
14061;DHT22;7105;43.616;1.434;2023-04-29T10:33:10;20.00;99.90
14061;DHT22;7105;43.616;1.434;2023-04-29T10:35:36;19.80;99.90
14061;DHT22;7105;43.616;1.434;2023-04-29T10:38:28;19.60;99.90
14061;DHT22;7105;43.616;1.434;2023-04-29T10:40:55;19.60;99.90
14061;DHT22;7105;43.616;1.434;2023-04-29T10:43:25;19.40;99.90
14061;DHT22;7105;43.616;1.434;2023-04-29T10:46:15;19.30;99.90
14061;DHT22;7105;43.616;1.434;2023-04-29T10:48:48;19.20;99.90
14061;DHT22;7105;43.616;1.434;2023-04-29T10:51:33;19.30;99.90
14061;DHT22;7105;43.616;1.434;2023-04-29T10:54:11;19.50;99.90
14061;DHT22;7105;43.616;1.434;2023-04-29T10:56:41;19.50;99.90
14061;DHT22;7105;43.616;1.434;2023-04-29T10:59:12;19.60;99.90
14061;DHT22;7105;43.616;1.434;2023-04-29T11:01:49;19.60;99.90
14061;DHT22;7105;43.616;1.434;2023-04-29T11:04:17;19.40;99.90
14061;DHT22;7105;43.616;1.434;2023-04-29T11:06:54;19.60;99.90
14061;DHT22;7105;43.616;1.434;2023-04-29T11:15:09;20.60;99.90
14061;DHT22;7105;43.616;1.434;2023-04-29T11:17:13;20.60;99.90
14061;DHT22;7105;43.616;1.434;2023-04-29T11:19:53;20.90;99.90
14061;DHT22;7105;43.616;1.434;2023-04-29T11:22:29;21.20;99.90
14061;DHT22;7105;43.616;1.434;2023-04-29T11:25:01;21.00;99.90
14061;DHT22;7105;43.616;1.434;2023-04-29T11:27:38;21.00;99.90
14061;DHT22;7105;43.616;1.434;2023-04-29T11:30:05;20.50;99.90
14061;DHT22;7105;43.616;1.434;2023-04-29T11:32:36;20.70;99.90
14061;DHT22;7105;43.616;1.434;2023-04-29T11:35:13;21.00;99.90
14061;DHT22;7105;43.616;1.434;2023-04-29T11:37:40;21.80;99.90
14061;DHT22;7105;43.616;1.434;2023-04-29T11:40:07;21.60;99.90
14061;DHT22;7105;43.616;1.434;2023-04-29T11:42:34;21.30;99.90
14061;DHT22;7105;43.616;1.434;2023-04-29T11:45:01;20.80;99.90
14061;DHT22;7105;43.616;1.434;2023-04-29T11:47:29;20.40;99.90
14061;DHT22;7105;43.616;1.434;2023-04-29T11:50:06;20.10;99.90
14061;DHT22;7105;43.616;1.434;2023-04-29T11:52:35;20.10;99.90
14061;DHT22;7105;43.616;1.434;2023-04-29T11:55:02;20.20;99.90
14061;DHT22;7105;43.616;1.434;2023-04-29T11:57:28;20.30;99.90
14061;DHT22;7105;43.616;1.434;2023-04-29T11:59:54;20.10;99.90
14061;DHT22;7105;43.616;1.434;2023-04-29T12:02:22;20.00;99.90
14061;DHT22;7105;43.616;1.434;2023-04-29T12:04:48;19.70;99.90
14061;DHT22;7105;43.616;1.434;2023-04-29T12:07:17;19.60;99.90
14061;DHT22;7105;43.616;1.434;2023-04-29T12:09:43;19.40;99.90
14061;DHT22;7105;43.616;1.434;2023-04-29T12:12:10;19.40;99.90
14061;DHT22;7105;43.616;1.434;2023-04-29T12:14:36;19.40;99.90
14061;DHT22;7105;43.616;1.434;2023-04-29T12:17:03;19.30;99.90
14061;DHT22;7105;43.616;1.434;2023-04-29T12:19:29;19.40;99.90
14061;DHT22;7105;43.616;1.434;2023-04-29T12:21:58;19.50;99.90
14061;DHT22;7105;43.616;1.434;2023-04-29T12:24:24;19.50;99.90
14061;DHT22;7105;43.616;1.434;2023-04-29T12:26:50;19.40;99.90
14061;DHT22;7105;43.616;1.434;2023-04-29T12:29:20;19.30;99.90
14061;DHT22;7105;43.616;1.434;2023-04-29T12:31:47;19.30;99.90
14061;DHT22;7105;43.616;1.434;2023-04-29T12:34:13;19.10;99.90
14061;DHT22;7105;43.616;1.434;2023-04-29T12:36:43;19.00;99.90
14061;DHT22;7105;43.616;1.434;2023-04-29T12:39:10;19.00;99.90
14061;DHT22;7105;43.616;1.434;2023-04-29T12:41:39;18.90;99.90
14061;DHT22;7105;43.616;1.434;2023-04-29T12:44:06;18.90;99.90
14061;DHT22;7105;43.616;1.434;2023-04-29T12:46:36;19.00;99.90
14061;DHT22;7105;43.616;1.434;2023-04-29T12:49:03;19.10;99.90
14061;DHT22;7105;43.616;1.434;2023-04-29T12:51:33;19.10;99.90
14061;DHT22;7105;43.616;1.434;2023-04-29T12:54:01;19.10;99.90
14061;DHT22;7105;43.616;1.434;2023-04-29T12:56:31;19.20;99.90
14061;DHT22;7105;43.616;1.434;2023-04-29T12:59:04;19.30;99.90
14061;DHT22;7105;43.616;1.434;2023-04-29T13:01:31;19.30;99.90
14061;DHT22;7105;43.616;1.434;2023-04-29T13:03:57;19.30;99.90
14061;DHT22;7105;43.616;1.434;2023-04-29T13:06:23;19.30;99.90
14061;DHT22;7105;43.616;1.434;2023-04-29T13:08:48;19.10;99.90
14061;DHT22;7105;43.616;1.434;2023-04-29T13:11:16;19.00;99.90
14061;DHT22;7105;43.616;1.434;2023-04-29T13:13:41;19.00;99.90
14061;DHT22;7105;43.616;1.434;2023-04-29T13:16:07;19.00;99.90
14061;DHT22;7105;43.616;1.434;2023-04-29T13:18:33;19.10;99.90
14061;DHT22;7105;43.616;1.434;2023-04-29T13:20:58;19.00;99.90
14061;DHT22;7105;43.616;1.434;2023-04-29T13:23:24;19.10;99.90
14061;DHT22;7105;43.616;1.434;2023-04-29T13:25:50;19.20;99.90
14061;DHT22;7105;43.616;1.434;2023-04-29T13:28:16;19.00;99.90
14061;DHT22;7105;43.616;1.434;2023-04-29T13:30:41;18.90;99.90
14061;DHT22;7105;43.616;1.434;2023-04-29T13:33:07;19.00;99.90
14061;DHT22;7105;43.616;1.434;2023-04-29T13:35:33;19.30;99.90
14061;DHT22;7105;43.616;1.434;2023-04-29T13:38:01;19.70;99.90
14061;DHT22;7105;43.616;1.434;2023-04-29T13:40:26;19.80;99.90
14061;DHT22;7105;43.616;1.434;2023-04-29T13:42:52;19.90;99.90
14061;DHT22;7105;43.616;1.434;2023-04-29T13:45:18;20.20;99.90
14061;DHT22;7105;43.616;1.434;2023-04-29T13:47:44;20.00;99.90
14061;DHT22;7105;43.616;1.434;2023-04-29T13:50:10;19.60;99.90
14061;DHT22;7105;43.616;1.434;2023-04-29T13:52:35;19.20;99.90
14061;DHT22;7105;43.616;1.434;2023-04-29T13:55:01;19.30;99.90
14061;DHT22;7105;43.616;1.434;2023-04-29T13:57:27;19.50;99.90
14061;DHT22;7105;43.616;1.434;2023-04-29T13:59:52;19.70;99.90
14061;DHT22;7105;43.616;1.434;2023-04-29T14:02:20;19.60;99.90
14061;DHT22;7105;43.616;1.434;2023-04-29T14:04:46;19.30;99.90
14061;DHT22;7105;43.616;1.434;2023-04-29T14:07:12;19.40;99.90
14061;DHT22;7105;43.616;1.434;2023-04-29T14:09:38;19.60;99.90
14061;DHT22;7105;43.616;1.434;2023-04-29T14:12:04;19.90;99.90
14061;DHT22;7105;43.616;1.434;2023-04-29T14:14:30;19.90;99.90
14061;DHT22;7105;43.616;1.434;2023-04-29T14:16:56;20.10;99.90
14061;DHT22;7105;43.616;1.434;2023-04-29T14:19:22;20.40;99.90
14061;DHT22;7105;43.616;1.434;2023-04-29T14:21:48;20.70;99.90
14061;DHT22;7105;43.616;1.434;2023-04-29T14:24:13;20.80;99.90
14061;DHT22;7105;43.616;1.434;2023-04-29T14:26:39;20.80;99.90
14061;DHT22;7105;43.616;1.434;2023-04-29T14:29:06;20.70;99.90
14061;DHT22;7105;43.616;1.434;2023-04-29T14:31:35;20.10;99.90
14061;DHT22;7105;43.616;1.434;2023-04-29T14:34:04;19.80;99.90
14061;DHT22;7105;43.616;1.434;2023-04-29T14:36:30;19.40;99.90
14061;DHT22;7105;43.616;1.434;2023-04-29T14:38:59;19.30;99.90
14061;DHT22;7105;43.616;1.434;2023-04-29T14:41:25;19.30;99.90
14061;DHT22;7105;43.616;1.434;2023-04-29T14:43:51;19.40;99.90
14061;DHT22;7105;43.616;1.434;2023-04-29T14:46:17;19.40;99.90
14061;DHT22;7105;43.616;1.434;2023-04-29T14:48:43;19.30;99.90
14061;DHT22;7105;43.616;1.434;2023-04-29T14:51:09;19.30;99.90
14061;DHT22;7105;43.616;1.434;2023-04-29T14:53:35;19.40;99.90
14061;DHT22;7105;43.616;1.434;2023-04-29T14:56:00;19.30;99.90
14061;DHT22;7105;43.616;1.434;2023-04-29T14:58:26;19.30;99.90
14061;DHT22;7105;43.616;1.434;2023-04-29T15:00:52;19.30;99.90
14061;DHT22;7105;43.616;1.434;2023-04-29T15:03:17;19.30;99.90
14061;DHT22;7105;43.616;1.434;2023-04-29T15:05:43;19.50;99.90
14061;DHT22;7105;43.616;1.434;2023-04-29T15:08:10;19.50;99.90
14061;DHT22;7105;43.616;1.434;2023-04-29T15:10:35;19.50;99.90
14061;DHT22;7105;43.616;1.434;2023-04-29T15:13:01;19.30;99.90
14061;DHT22;7105;43.616;1.434;2023-04-29T15:15:27;19.20;99.90
14061;DHT22;7105;43.616;1.434;2023-04-29T15:17:53;19.10;99.90
14061;DHT22;7105;43.616;1.434;2023-04-29T15:20:18;19.20;99.90
14061;DHT22;7105;43.616;1.434;2023-04-29T15:22:44;19.30;99.90
14061;DHT22;7105;43.616;1.434;2023-04-29T15:25:11;19.10;99.90
14061;DHT22;7105;43.616;1.434;2023-04-29T15:27:37;19.20;99.90
14061;DHT22;7105;43.616;1.434;2023-04-29T15:30:04;19.20;99.90
14061;DHT22;7105;43.616;1.434;2023-04-29T15:32:30;19.20;99.90
14061;DHT22;7105;43.616;1.434;2023-04-29T15:35:05;19.30;99.90
14061;DHT22;7105;43.616;1.434;2023-04-29T15:37:31;19.30;99.90
14061;DHT22;7105;43.616;1.434;2023-04-29T15:40:01;19.30;99.90
14061;DHT22;7105;43.616;1.434;2023-04-29T15:42:27;19.30;99.90
14061;DHT22;7105;43.616;1.434;2023-04-29T15:44:52;19.30;99.90
14061;DHT22;7105;43.616;1.434;2023-04-29T15:47:18;19.30;99.90
14061;DHT22;7105;43.616;1.434;2023-04-29T15:49:44;19.30;99.90
14061;DHT22;7105;43.616;1.434;2023-04-29T15:52:09;19.40;99.90
14061;DHT22;7105;43.616;1.434;2023-04-29T15:54:35;19.30;99.90
14061;DHT22;7105;43.616;1.434;2023-04-29T15:57:01;19.20;99.90
14061;DHT22;7105;43.616;1.434;2023-04-29T15:59:29;19.10;99.90
14061;DHT22;7105;43.616;1.434;2023-04-29T16:01:55;19.20;99.90